Adams Corners, NY

6:08 AM EDT on September 01, 2015 (GMT -0400)
Lake Secor | | Change Station
CLOSE
Current Station
Personal Weather Station
Location: Mahopac, NY
Elevation: 702 ft
Nearby Weather Stations

Elev 702 ft 41.37 °N, 73.79 °W | Updated 18 seconds ago

Partly Cloudy
Partly Cloudy
67.3 °F
Feels Like 67.3 °F
N
0.0
Wind Variable Wind from West
Gusts 0.0 mph

Today
High -- | Low -- °F
--% Chance of Precip.
Yesterday
High -- | Low -- °F
Precip. -- in
6:21 AM 7:28 PM
Waning Gibbous, 90% visible
Pressure 30.05 in
Visibility 6.0 miles
Clouds Few 3000 ft
Mostly Cloudy 6000 ft
Dew Point 66 °F
Humidity 95%
Rainfall 0.00 in
Snow Depth Not available.
UV 0.0 out of 12
Pollen 10.00 out of 12
Air Quality Not available.
Flu Activity Not available.
METAR KSWF 010945Z VRB04KT 6SM BR FEW030 BKN060 18/18 A3005
Pressure 30.05 in
Visibility 6.0 miles
Clouds Few 3000 ft
Mostly Cloudy 6000 ft
Dew Point 66 °F
Humidity 95%
Rainfall 0.00 in
Snow Depth Not available.
UV 0.0 out of 12
Pollen 10.00 out of 12
Air Quality Not available.
Flu Activity Not available.
METAR KSWF 010945Z VRB04KT 6SM BR FEW030 BKN060 18/18 A3005

10-Day Weather Forecast

×

Almanac

Astronomy

Sep. 01, 2015 Rise Set
Actual Time
Civil Twilight
Nautical Twilight
Astronomical Twilight
Moon
Length of Visible Light
Length of Day
Tomorrow will be .
, % of the Moon is Illuminated

Today's Extremes

State Highs State Lows

Community

WunderPhotos

Upload Photos

1,851,501 photos uploaded!

WunderBlogs® & News

Nearby

Air Quality

  Air Quality AQ Index Pollutant
Not available.

Snow Depth

Station Depth Elevation

Earthquake Activity

City Distance Mag. Time & Date
Minimum magnitude displayed is 2.5.

Coastal Water Temperatures

Place Temperature

Stations

Nearby Weather Stations

Station Location Temp. Windchill Dew Point Humidity Wind Precip. Elev Updated Type